Time;durP1;ratioP1;P1;durP2;ratioP2;P2;SDS_P1;SDS_P2;PMS_P1;PMS_P2;Temp;Humidity;BMP_temperature;BMP_pressure;BME280_temperature;BME280_humidity;BME280_pressure;Samples;Min_cycle;Max_cycle;Signal;HPM_P1;HPM_P2
2021/12/07 00:02:02;;;;;;;10.40;7.17;;;;;;;;;;5050062;28;20732;-64
2021/12/07 00:04:28;;;;;;;7.87;7.00;;;;;;;;;;5048358;28;20284;-65
2021/12/07 00:06:54;;;;;;;7.77;6.97;;;;;;;;;;5049432;28;20257;-65
2021/12/07 00:09:21;;;;;;;7.10;6.33;;;;;;;;;;5035045;28;20243;-64
2021/12/07 00:11:48;;;;;;;7.00;6.30;;;;;;;;;;5030218;28;20227;-64
2021/12/07 00:14:22;;;;;;;6.50;5.73;;;;;;;;;;5052317;28;20230;-66
2021/12/07 00:16:48;;;;;;;6.40;5.27;;;;;;;;;;5030889;28;20242;-64
2021/12/07 00:19:14;;;;;;;5.73;5.03;;;;;;;;;;5032260;28;20231;-65
2021/12/07 00:21:40;;;;;;;5.47;4.97;;;;;;;;;;5035279;28;20285;-65
2021/12/07 00:24:06;;;;;;;5.53;4.27;;;;;;;;;;5049134;28;20247;-65
2021/12/07 00:26:32;;;;;;;4.97;3.87;;;;;;;;;;5052927;28;20247;-65
2021/12/07 00:29:01;;;;;;;5.67;4.00;;;;;;;;;;5045544;28;20461;-66
2021/12/07 00:31:34;;;;;;;5.87;4.20;;;;;;;;;;5039413;28;20594;-64
2021/12/07 00:36:32;;;;;;;4.07;3.67;;;;;;;;;;5026064;28;20405;-64
2021/12/07 00:38:58;;;;;;;4.20;2.97;;;;;;;;;;5039949;28;20281;-64
2021/12/07 00:41:24;;;;;;;3.40;3.10;;;;;;;;;;5043369;28;20240;-64
2021/12/07 00:43:50;;;;;;;4.37;3.10;;;;;;;;;;5038992;28;20227;-65
2021/12/07 00:46:16;;;;;;;3.47;3.23;;;;;;;;;;5051694;28;20561;-65
2021/12/07 00:48:42;;;;;;;3.40;3.20;;;;;;;;;;5055105;28;20312;-63
2021/12/07 00:51:08;;;;;;;3.40;3.10;;;;;;;;;;5056645;28;20250;-65
2021/12/07 00:53:34;;;;;;;3.77;3.47;;;;;;;;;;5051779;28;20227;-66
2021/12/07 00:56:00;;;;;;;4.03;3.67;;;;;;;;;;5036079;28;20292;-66
2021/12/07 00:58:26;;;;;;;4.43;3.70;;;;;;;;;;5052213;28;20638;-65
2021/12/07 01:00:54;;;;;;;4.30;3.93;;;;;;;;;;5036133;28;20231;-65
2021/12/07 01:03:20;;;;;;;4.50;4.10;;;;;;;;;;5044344;28;20688;-65
2021/12/07 01:05:50;;;;;;;4.27;3.70;;;;;;;;;;5045159;28;20712;-66
2021/12/07 01:08:37;;;;;;;4.87;4.30;;;;;;;;;;5040634;28;20235;-64
2021/12/07 01:24:47;;;;;;;6.87;6.17;;;;;;;;;;5046267;28;20308;-70
2021/12/07 01:27:15;;;;;;;8.20;7.40;;;;;;;;;;5047072;28;20235;-68
2021/12/07 01:29:43;;;;;;;9.77;8.13;;;;;;;;;;5045187;28;20690;-68
2021/12/07 01:32:24;;;;;;;10.43;8.70;;;;;;;;;;5045766;28;20793;-68
2021/12/07 01:46:34;;;;;;;12.40;9.83;;;;;;;;;;5018231;28;20831;-66
2021/12/07 02:00:05;;;;;;;17.33;10.33;;;;;;;;;;5047850;28;20731;-65
2021/12/07 02:02:31;;;;;;;12.63;9.77;;;;;;;;;;5048184;28;20767;-65
2021/12/07 02:04:57;;;;;;;18.17;10.63;;;;;;;;;;5044136;28;20309;-66
2021/12/07 02:07:23;;;;;;;14.50;9.73;;;;;;;;;;5048412;28;20224;-65
2021/12/07 02:09:54;;;;;;;16.93;9.10;;;;;;;;;;5048226;28;20235;-65
2021/12/07 02:12:20;;;;;;;16.57;8.77;;;;;;;;;;5044372;28;20220;-65
2021/12/07 02:14:46;;;;;;;15.67;8.67;;;;;;;;;;5046259;28;20227;-65
2021/12/07 02:17:13;;;;;;;16.60;8.43;;;;;;;;;;5045904;28;20649;-64
2021/12/07 02:19:41;;;;;;;11.50;7.57;;;;;;;;;;5044512;28;20604;-66
2021/12/07 02:22:06;;;;;;;12.77;8.10;;;;;;;;;;5045270;28;20234;-66
2021/12/07 02:24:32;;;;;;;13.50;7.73;;;;;;;;;;5045190;28;20704;-66
2021/12/07 02:26:58;;;;;;;14.90;8.40;;;;;;;;;;5044591;28;20238;-66
2021/12/07 02:29:25;;;;;;;12.60;7.67;;;;;;;;;;5045466;28;20226;-66
2021/12/07 02:31:51;;;;;;;12.87;7.37;;;;;;;;;;5053789;28;20269;-65
2021/12/07 02:34:17;;;;;;;13.87;7.20;;;;;;;;;;5049699;28;20644;-65
2021/12/07 02:36:43;;;;;;;12.53;7.23;;;;;;;;;;5043453;28;20228;-66
2021/12/07 02:39:10;;;;;;;12.47;7.77;;;;;;;;;;5045256;28;20235;-65
2021/12/07 02:41:36;;;;;;;14.47;7.50;;;;;;;;;;5047959;28;20250;-65
2021/12/07 02:44:05;;;;;;;19.77;8.17;;;;;;;;;;5028663;28;20220;-65
2021/12/07 02:46:31;;;;;;;18.57;7.33;;;;;;;;;;5046524;28;20260;-65
2021/12/07 02:48:57;;;;;;;18.77;8.00;;;;;;;;;;5047584;28;23381;-66
2021/12/07 02:51:23;;;;;;;20.80;8.07;;;;;;;;;;5052872;28;20284;-66
2021/12/07 02:53:49;;;;;;;19.73;7.90;;;;;;;;;;5053519;28;20229;-66
2021/12/07 02:56:15;;;;;;;15.00;7.73;;;;;;;;;;5051457;28;20720;-65
2021/12/07 02:58:43;;;;;;;19.27;7.80;;;;;;;;;;5055187;28;20237;-65
2021/12/07 03:01:14;;;;;;;17.13;7.17;;;;;;;;;;5047744;28;20235;-66
2021/12/07 03:03:50;;;;;;;13.90;6.97;;;;;;;;;;5051633;28;20611;-66
2021/12/07 03:06:24;;;;;;;19.83;7.90;;;;;;;;;;5039755;28;20227;-66
2021/12/07 03:28:10;;;;;;;15.67;7.43;;;;;;;;;;5035395;28;20285;-65
2021/12/07 03:30:35;;;;;;;17.13;6.60;;;;;;;;;;5036159;28;20265;-66
2021/12/07 03:33:03;;;;;;;15.80;6.93;;;;;;;;;;5034039;28;20223;-66
2021/12/07 03:35:29;;;;;;;13.90;6.40;;;;;;;;;;5033527;28;20676;-65
2021/12/07 03:37:55;;;;;;;18.93;6.63;;;;;;;;;;5034854;28;20246;-66
2021/12/07 03:40:21;;;;;;;18.07;6.30;;;;;;;;;;5016446;28;20697;-65
2021/12/07 03:42:46;;;;;;;15.67;6.13;;;;;;;;;;5043626;28;20230;-65
2021/12/07 03:45:13;;;;;;;18.90;6.40;;;;;;;;;;5027530;28;20234;-65
2021/12/07 03:47:39;;;;;;;21.97;6.20;;;;;;;;;;5046008;28;20765;-66
2021/12/07 03:50:05;;;;;;;15.10;5.77;;;;;;;;;;5032591;28;20284;-65
2021/12/07 03:52:31;;;;;;;16.67;5.67;;;;;;;;;;5035678;28;20250;-65
2021/12/07 03:54:57;;;;;;;19.43;6.10;;;;;;;;;;5017813;28;20227;-65
2021/12/07 03:57:23;;;;;;;17.07;5.80;;;;;;;;;;5039726;28;20729;-66
2021/12/07 03:59:49;;;;;;;16.17;6.40;;;;;;;;;;5040104;28;20314;-66
2021/12/07 04:02:15;;;;;;;18.67;5.97;;;;;;;;;;5039491;28;20726;-66
2021/12/07 04:04:41;;;;;;;17.93;6.20;;;;;;;;;;5036932;28;20234;-65
2021/12/07 04:07:07;;;;;;;12.87;5.70;;;;;;;;;;5036658;28;20234;-65
2021/12/07 04:09:33;;;;;;;13.70;5.60;;;;;;;;;;5032848;28;20621;-66
2021/12/07 04:11:59;;;;;;;16.80;5.60;;;;;;;;;;5034821;28;20227;-65
2021/12/07 04:14:25;;;;;;;16.87;5.83;;;;;;;;;;5047920;28;20232;-65
2021/12/07 04:16:51;;;;;;;12.20;5.87;;;;;;;;;;5050101;28;20239;-66
2021/12/07 04:19:17;;;;;;;15.53;5.40;;;;;;;;;;5042426;28;20705;-65
2021/12/07 04:21:43;;;;;;;13.17;5.50;;;;;;;;;;5042367;28;20230;-66
2021/12/07 04:24:09;;;;;;;19.80;5.57;;;;;;;;;;5044817;28;20270;-66
2021/12/07 04:26:36;;;;;;;18.47;5.47;;;;;;;;;;5026431;28;20290;-65
2021/12/07 04:29:02;;;;;;;19.30;5.77;;;;;;;;;;5040123;28;20277;-65
2021/12/07 04:31:28;;;;;;;24.93;5.50;;;;;;;;;;5043399;28;20626;-65
2021/12/07 04:33:54;;;;;;;17.97;4.83;;;;;;;;;;5032638;28;20978;-66
2021/12/07 04:36:20;;;;;;;15.73;5.70;;;;;;;;;;5035321;28;20286;-65
2021/12/07 04:38:46;;;;;;;16.23;5.27;;;;;;;;;;5026984;28;20231;-66
2021/12/07 04:41:12;;;;;;;20.27;6.07;;;;;;;;;;5041399;28;20924;-66
2021/12/07 04:43:38;;;;;;;18.17;5.43;;;;;;;;;;5044297;28;20251;-65
2021/12/07 04:46:17;;;;;;;15.37;5.20;;;;;;;;;;5029096;28;20726;-66
2021/12/07 05:00:01;;;;;;;17.07;5.13;;;;;;;;;;5047148;28;20235;-65
2021/12/07 05:02:27;;;;;;;23.00;5.70;;;;;;;;;;5039397;28;20216;-64
2021/12/07 05:04:53;;;;;;;11.63;5.57;;;;;;;;;;5041033;28;20314;-65
2021/12/07 05:07:27;;;;;;;12.03;5.63;;;;;;;;;;5049004;28;20230;-65
2021/12/07 05:10:13;;;;;;;17.43;5.13;;;;;;;;;;5046770;28;20909;-64
2021/12/07 05:15:27;;;;;;;15.13;5.90;;;;;;;;;;5051016;28;20738;-66
2021/12/07 05:18:23;;;;;;;11.97;5.57;;;;;;;;;;5040551;28;20231;-67
2021/12/07 05:40:04;;;;;;;16.10;6.10;;;;;;;;;;5042258;28;21344;-65
2021/12/07 05:42:30;;;;;;;15.37;6.13;;;;;;;;;;5041728;28;20780;-65
2021/12/07 05:44:56;;;;;;;12.63;5.93;;;;;;;;;;5045034;28;20238;-64
2021/12/07 05:47:22;;;;;;;14.00;6.13;;;;;;;;;;5030234;28;20592;-65
2021/12/07 05:49:48;;;;;;;17.50;6.20;;;;;;;;;;5046729;28;20775;-65
2021/12/07 05:52:14;;;;;;;16.43;5.97;;;;;;;;;;5034955;28;20223;-64
2021/12/07 05:54:40;;;;;;;16.20;6.20;;;;;;;;;;5044627;28;20647;-65
2021/12/07 05:57:06;;;;;;;17.90;6.57;;;;;;;;;;5051483;28;20243;-66
2021/12/07 05:59:32;;;;;;;14.43;6.67;;;;;;;;;;5040147;28;20269;-66
2021/12/07 06:01:58;;;;;;;17.07;6.27;;;;;;;;;;5032655;28;20254;-66
2021/12/07 06:04:24;;;;;;;13.50;6.37;;;;;;;;;;5028928;28;20254;-66
2021/12/07 06:06:50;;;;;;;19.70;6.20;;;;;;;;;;5050989;28;20230;-66
2021/12/07 06:09:16;;;;;;;15.47;6.20;;;;;;;;;;5052580;28;20669;-67
2021/12/07 06:11:44;;;;;;;9.07;5.90;;;;;;;;;;5055427;28;20239;-65
2021/12/07 06:14:12;;;;;;;13.73;6.33;;;;;;;;;;5047463;28;20732;-65
2021/12/07 06:16:38;;;;;;;27.83;9.67;;;;;;;;;;5053863;28;20641;-66
2021/12/07 06:19:04;;;;;;;36.30;14.77;;;;;;;;;;5045574;28;20235;-67
2021/12/07 06:21:29;;;;;;;25.37;11.50;;;;;;;;;;5039215;28;20618;-67
2021/12/07 06:23:56;;;;;;;22.97;10.30;;;;;;;;;;5007773;28;20596;-67
2021/12/07 06:26:22;;;;;;;24.13;10.33;;;;;;;;;;5045782;28;20326;-66
2021/12/07 06:28:48;;;;;;;22.20;9.97;;;;;;;;;;5052210;28;20297;-66
2021/12/07 06:31:14;;;;;;;18.67;8.00;;;;;;;;;;5050331;28;20253;-66
2021/12/07 06:33:40;;;;;;;17.33;7.00;;;;;;;;;;5053241;28;20231;-66
2021/12/07 06:36:06;;;;;;;16.13;7.13;;;;;;;;;;5022510;28;21382;-67
2021/12/07 06:38:32;;;;;;;23.17;7.50;;;;;;;;;;5020972;28;20274;-66
2021/12/07 06:40:59;;;;;;;14.97;6.37;;;;;;;;;;5023253;28;20238;-67
2021/12/07 06:43:25;;;;;;;17.10;6.53;;;;;;;;;;5046820;28;20742;-66
2021/12/07 06:45:51;;;;;;;15.20;6.70;;;;;;;;;;5051278;28;20364;-66
2021/12/07 06:48:16;;;;;;;15.00;6.60;;;;;;;;;;5051457;28;20237;-66
2021/12/07 06:50:43;;;;;;;17.13;6.03;;;;;;;;;;5049132;28;20220;-66
2021/12/07 06:53:09;;;;;;;17.50;6.10;;;;;;;;;;5047281;28;20230;-67
2021/12/07 06:55:35;;;;;;;15.33;5.93;;;;;;;;;;5047804;28;20288;-66
2021/12/07 06:58:01;;;;;;;13.60;6.13;;;;;;;;;;5053824;28;20542;-66
2021/12/07 07:00:27;;;;;;;15.47;6.00;;;;;;;;;;5044810;28;20708;-67
2021/12/07 07:02:53;;;;;;;18.13;5.73;;;;;;;;;;5043398;28;20235;-66
2021/12/07 07:05:19;;;;;;;13.43;5.30;;;;;;;;;;5021130;28;20238;-67
2021/12/07 07:07:45;;;;;;;11.87;4.87;;;;;;;;;;5037469;28;20351;-66
2021/12/07 07:10:14;;;;;;;11.47;4.90;;;;;;;;;;5039814;28;20266;-68
2021/12/07 07:12:40;;;;;;;13.07;5.07;;;;;;;;;;5026326;28;20269;-66
2021/12/07 07:15:07;;;;;;;15.30;5.67;;;;;;;;;;5049390;28;20304;-67
2021/12/07 07:17:33;;;;;;;15.10;5.17;;;;;;;;;;5030759;28;20641;-67
2021/12/07 07:19:59;;;;;;;16.13;5.30;;;;;;;;;;5044456;28;20231;-66
2021/12/07 07:22:24;;;;;;;13.60;4.57;;;;;;;;;;5040825;28;20241;-66
2021/12/07 07:24:51;;;;;;;16.07;5.63;;;;;;;;;;5046205;28;20838;-66
2021/12/07 07:27:16;;;;;;;11.60;5.20;;;;;;;;;;5045959;28;20231;-66
2021/12/07 07:29:42;;;;;;;14.97;5.00;;;;;;;;;;5033344;28;20338;-67
2021/12/07 07:32:09;;;;;;;21.53;5.03;;;;;;;;;;5036489;28;20875;-66
2021/12/07 07:34:35;;;;;;;16.03;5.97;;;;;;;;;;5030511;28;20234;-68
2021/12/07 07:37:00;;;;;;;17.83;5.37;;;;;;;;;;5033688;28;20239;-67
2021/12/07 07:39:26;;;;;;;12.70;4.50;;;;;;;;;;5040068;28;20226;-67
2021/12/07 07:41:53;;;;;;;11.87;4.77;;;;;;;;;;5045297;28;20247;-68
2021/12/07 07:44:19;;;;;;;12.33;5.03;;;;;;;;;;5024180;28;20791;-68
2021/12/07 07:46:45;;;;;;;14.00;5.07;;;;;;;;;;5038379;28;20227;-67
2021/12/07 07:49:11;;;;;;;13.10;4.93;;;;;;;;;;5048351;28;20728;-68
2021/12/07 07:51:37;;;;;;;19.40;5.50;;;;;;;;;;5045489;28;20223;-68
2021/12/07 07:54:03;;;;;;;10.93;4.43;;;;;;;;;;5053392;28;20227;-67
2021/12/07 07:56:29;;;;;;;13.73;5.33;;;;;;;;;;5024049;28;20613;-68
2021/12/07 07:58:55;;;;;;;16.23;5.00;;;;;;;;;;5021537;28;20317;-68
2021/12/07 08:01:23;;;;;;;14.47;5.70;;;;;;;;;;5023699;28;20247;-68
2021/12/07 08:03:49;;;;;;;19.43;5.27;;;;;;;;;;5041627;28;20276;-68
2021/12/07 08:06:15;;;;;;;15.17;4.83;;;;;;;;;;5043210;28;20293;-67
2021/12/07 08:08:41;;;;;;;11.77;4.43;;;;;;;;;;5051395;28;20235;-68
2021/12/07 08:11:07;;;;;;;11.70;4.23;;;;;;;;;;5052119;28;20366;-68
2021/12/07 08:13:33;;;;;;;13.70;4.23;;;;;;;;;;5052283;28;20243;-68
2021/12/07 08:15:59;;;;;;;9.40;3.80;;;;;;;;;;5035549;28;20239;-68
2021/12/07 08:18:25;;;;;;;12.30;4.90;;;;;;;;;;5053601;28;20701;-67
2021/12/07 08:20:51;;;;;;;11.37;4.50;;;;;;;;;;5050709;28;20231;-68
2021/12/07 08:23:17;;;;;;;17.13;4.60;;;;;;;;;;5051268;28;20227;-68
2021/12/07 08:25:44;;;;;;;12.70;5.07;;;;;;;;;;5049749;28;20235;-69
2021/12/07 08:28:14;;;;;;;12.03;4.43;;;;;;;;;;5032529;28;21020;-68
2021/12/07 08:30:41;;;;;;;9.20;4.40;;;;;;;;;;5044526;28;21272;-73
2021/12/07 08:33:07;;;;;;;13.70;4.37;;;;;;;;;;5044108;28;20706;-71
2021/12/07 08:35:33;;;;;;;12.73;4.60;;;;;;;;;;5051798;28;20231;-70
2021/12/07 08:37:59;;;;;;;19.03;5.47;;;;;;;;;;5015138;28;20321;-70
2021/12/07 08:40:25;;;;;;;20.23;5.07;;;;;;;;;;5019342;28;20608;-70
2021/12/07 08:42:52;;;;;;;13.73;5.13;;;;;;;;;;5023861;28;20802;-70
2021/12/07 08:45:19;;;;;;;17.17;5.33;;;;;;;;;;5028190;28;20357;-70
2021/12/07 08:47:45;;;;;;;10.47;5.03;;;;;;;;;;5038947;28;20662;-70
2021/12/07 08:50:12;;;;;;;10.20;5.20;;;;;;;;;;5042221;28;20223;-69
2021/12/07 08:52:38;;;;;;;12.83;5.27;;;;;;;;;;5034959;28;20243;-68
2021/12/07 09:00:16;;;;;;;11.67;5.03;;;;;;;;;;5033012;28;20569;-67
2021/12/07 09:02:42;;;;;;;15.03;5.57;;;;;;;;;;5028337;28;20626;-69
2021/12/07 09:05:09;;;;;;;14.03;4.80;;;;;;;;;;5019794;28;20265;-69
2021/12/07 09:07:35;;;;;;;13.13;4.67;;;;;;;;;;5043329;28;20361;-68
2021/12/07 09:10:01;;;;;;;10.47;4.87;;;;;;;;;;5045312;28;20231;-69
2021/12/07 09:12:29;;;;;;;17.33;5.73;;;;;;;;;;5047851;28;20235;-68
2021/12/07 09:14:55;;;;;;;13.40;5.33;;;;;;;;;;5048286;28;20236;-70
2021/12/07 09:17:21;;;;;;;13.93;5.30;;;;;;;;;;5057022;28;20838;-68
2021/12/07 09:19:47;;;;;;;13.03;4.70;;;;;;;;;;5035900;28;20235;-69
2021/12/07 09:22:13;;;;;;;12.27;5.43;;;;;;;;;;5041585;28;20226;-69
2021/12/07 09:24:39;;;;;;;11.93;4.70;;;;;;;;;;5022105;28;20613;-70
2021/12/07 09:27:05;;;;;;;14.43;5.10;;;;;;;;;;5044506;28;20293;-69
2021/12/07 09:29:31;;;;;;;14.53;5.17;;;;;;;;;;5021438;28;20447;-69
2021/12/07 09:31:57;;;;;;;11.63;5.57;;;;;;;;;;5033650;28;20284;-68
2021/12/07 09:34:23;;;;;;;12.40;5.40;;;;;;;;;;5041388;28;21038;-69
2021/12/07 09:36:49;;;;;;;12.77;5.73;;;;;;;;;;5036655;28;20303;-69
2021/12/07 09:39:15;;;;;;;10.33;5.70;;;;;;;;;;5048856;28;20317;-70
2021/12/07 09:41:42;;;;;;;13.80;5.53;;;;;;;;;;5025992;28;20923;-70
2021/12/07 09:44:08;;;;;;;10.77;5.63;;;;;;;;;;5037691;28;20330;-69
2021/12/07 09:46:34;;;;;;;15.70;5.80;;;;;;;;;;5042405;28;20726;-71
2021/12/07 09:49:00;;;;;;;12.00;5.57;;;;;;;;;;5049596;28;21024;-70
2021/12/07 09:51:26;;;;;;;16.23;5.50;;;;;;;;;;5032164;28;20247;-70
2021/12/07 09:53:52;;;;;;;14.33;5.10;;;;;;;;;;5024371;28;21738;-69
2021/12/07 09:56:18;;;;;;;15.27;6.10;;;;;;;;;;5045934;28;20713;-72
2021/12/07 09:58:44;;;;;;;11.93;6.37;;;;;;;;;;5031521;28;20269;-70
2021/12/07 10:01:10;;;;;;;13.73;6.30;;;;;;;;;;5037636;28;20586;-69
2021/12/07 10:03:36;;;;;;;14.83;5.80;;;;;;;;;;5038429;28;20775;-71
2021/12/07 10:06:03;;;;;;;13.27;6.67;;;;;;;;;;5033297;28;20724;-68
2021/12/07 10:08:28;;;;;;;13.50;5.37;;;;;;;;;;5046586;28;20223;-69
2021/12/07 10:10:55;;;;;;;15.07;5.17;;;;;;;;;;5046209;28;20233;-70
2021/12/07 10:13:22;;;;;;;11.27;5.07;;;;;;;;;;5049424;28;20227;-69
2021/12/07 10:15:48;;;;;;;13.30;5.80;;;;;;;;;;5052096;28;20238;-69
2021/12/07 10:18:15;;;;;;;12.80;5.70;;;;;;;;;;5054087;28;20365;-69
2021/12/07 10:20:51;;;;;;;14.50;6.07;;;;;;;;;;5054981;28;20262;-70
2021/12/07 10:23:17;;;;;;;11.97;5.90;;;;;;;;;;5052406;28;20894;-70
2021/12/07 10:25:44;;;;;;;17.27;5.77;;;;;;;;;;5054211;28;20219;-70
2021/12/07 10:28:28;;;;;;;13.97;6.30;;;;;;;;;;5050582;28;20250;-70
2021/12/07 10:30:55;;;;;;;16.57;5.37;;;;;;;;;;5045506;28;20246;-70
2021/12/07 10:33:28;;;;;;;10.73;5.03;;;;;;;;;;5032470;28;20364;-70
2021/12/07 10:35:56;;;;;;;17.17;5.20;;;;;;;;;;5033606;28;20322;-69
2021/12/07 10:38:22;;;;;;;8.70;4.60;;;;;;;;;;5036676;28;20242;-69
2021/12/07 10:40:55;;;;;;;11.70;4.90;;;;;;;;;;5048714;28;20232;-70
2021/12/07 10:43:38;;;;;;;12.10;4.60;;;;;;;;;;5047655;28;20248;-69
2021/12/07 10:46:24;;;;;;;12.37;5.70;;;;;;;;;;5054887;28;20227;-70
2021/12/07 10:48:50;;;;;;;12.40;5.20;;;;;;;;;;5050732;28;20753;-70
2021/12/07 10:51:16;;;;;;;10.67;4.40;;;;;;;;;;5041498;28;20326;-69
2021/12/07 10:53:51;;;;;;;9.77;4.60;;;;;;;;;;5054741;28;20245;-69
2021/12/07 10:56:33;;;;;;;13.27;4.67;;;;;;;;;;5057347;28;20795;-69
2021/12/07 10:59:09;;;;;;;12.40;5.10;;;;;;;;;;5055303;28;20310;-70
2021/12/07 11:01:39;;;;;;;14.63;4.90;;;;;;;;;;5052338;28;20227;-69
2021/12/07 11:04:19;;;;;;;11.03;4.90;;;;;;;;;;5051675;28;20321;-69
2021/12/07 11:07:03;;;;;;;9.93;4.80;;;;;;;;;;5031318;28;21587;-70
2021/12/07 11:09:29;;;;;;;11.27;4.87;;;;;;;;;;5040107;28;20664;-70
2021/12/07 11:12:06;;;;;;;11.43;5.10;;;;;;;;;;5044072;28;20246;-70
2021/12/07 11:14:51;;;;;;;13.73;5.30;;;;;;;;;;5033949;28;20740;-70
2021/12/07 11:17:18;;;;;;;12.57;4.70;;;;;;;;;;5047480;28;20235;-69
2021/12/07 11:19:44;;;;;;;10.37;4.80;;;;;;;;;;5053902;28;20227;-69
2021/12/07 11:22:14;;;;;;;11.67;4.73;;;;;;;;;;5049953;28;20223;-70
2021/12/07 11:24:43;;;;;;;13.33;4.63;;;;;;;;;;5037220;28;20249;-70
2021/12/07 11:29:57;;;;;;;9.07;4.30;;;;;;;;;;5047371;28;20642;-67
2021/12/07 11:32:23;;;;;;;9.93;3.57;;;;;;;;;;5046812;28;20647;-69
2021/12/07 11:34:49;;;;;;;12.40;3.93;;;;;;;;;;5051017;28;20300;-68
2021/12/07 11:37:15;;;;;;;8.80;3.50;;;;;;;;;;5043777;28;20235;-67
2021/12/07 11:39:47;;;;;;;9.03;3.37;;;;;;;;;;5052195;28;20972;-69
2021/12/07 11:42:14;;;;;;;10.17;3.90;;;;;;;;;;5053430;28;20814;-69
2021/12/07 11:44:46;;;;;;;7.33;3.33;;;;;;;;;;5044277;28;20239;-69
2021/12/07 11:47:12;;;;;;;7.77;3.10;;;;;;;;;;5051274;28;20708;-70
2021/12/07 11:49:38;;;;;;;8.13;3.10;;;;;;;;;;5052017;28;20316;-70
2021/12/07 11:52:04;;;;;;;6.87;3.07;;;;;;;;;;5051806;28;20219;-70
2021/12/07 11:54:35;;;;;;;5.83;3.30;;;;;;;;;;5050154;28;22861;-70
2021/12/07 11:57:01;;;;;;;6.67;3.10;;;;;;;;;;5010528;28;20961;-70
2021/12/07 11:59:27;;;;;;;8.77;3.60;;;;;;;;;;5047372;28;20242;-71
2021/12/07 12:01:53;;;;;;;7.60;3.30;;;;;;;;;;5039372;28;20242;-68
2021/12/07 12:04:19;;;;;;;6.50;3.10;;;;;;;;;;5062822;28;20227;-68
2021/12/07 12:06:49;;;;;;;5.43;3.10;;;;;;;;;;5054649;28;20266;-67
2021/12/07 12:09:15;;;;;;;6.30;3.00;;;;;;;;;;5047935;28;20715;-68
2021/12/07 12:11:59;;;;;;;7.40;2.70;;;;;;;;;;5057250;28;20220;-69
2021/12/07 12:14:41;;;;;;;3.37;2.80;;;;;;;;;;5060162;28;20682;-68
2021/12/07 12:17:13;;;;;;;5.27;2.97;;;;;;;;;;5055861;28;20239;-69
2021/12/07 12:19:39;;;;;;;5.97;2.80;;;;;;;;;;5046589;28;20224;-69
2021/12/07 12:22:06;;;;;;;8.53;3.40;;;;;;;;;;5052137;28;20259;-68
2021/12/07 12:24:33;;;;;;;4.80;3.13;;;;;;;;;;5045608;28;20227;-68
2021/12/07 12:27:30;;;;;;;9.73;3.30;;;;;;;;;;5026637;28;20234;-73
2021/12/07 12:29:56;;;;;;;7.60;3.40;;;;;;;;;;5034421;28;21461;-71
2021/12/07 12:32:29;;;;;;;6.70;3.20;;;;;;;;;;5026492;28;20304;-66
2021/12/07 12:34:55;;;;;;;4.93;2.90;;;;;;;;;;5042724;28;20231;-66
2021/12/07 12:37:22;;;;;;;125.53;9.23;;;;;;;;;;5030637;28;20347;-61
2021/12/07 12:39:50;;;;;;;24.57;4.27;;;;;;;;;;5026868;28;20877;-63
2021/12/07 12:42:17;;;;;;;13.33;3.47;;;;;;;;;;5045663;28;20821;-62
2021/12/07 12:44:43;;;;;;;11.63;2.80;;;;;;;;;;5055188;28;20241;-62
2021/12/07 12:47:09;;;;;;;11.80;3.27;;;;;;;;;;5028044;28;20628;-63
2021/12/07 12:49:38;;;;;;;7.80;2.50;;;;;;;;;;5047972;28;20239;-64
2021/12/07 12:52:04;;;;;;;4.30;2.30;;;;;;;;;;5054084;28;20628;-63
2021/12/07 12:54:38;;;;;;;7.80;2.40;;;;;;;;;;5052789;28;20258;-62
2021/12/07 12:57:08;;;;;;;8.83;2.10;;;;;;;;;;5054264;28;20222;-63
2021/12/07 12:59:37;;;;;;;3.90;1.87;;;;;;;;;;5052368;28;20630;-63
2021/12/07 13:02:03;;;;;;;9.70;2.43;;;;;;;;;;5050678;28;20403;-62
2021/12/07 13:04:30;;;;;;;7.90;2.40;;;;;;;;;;5048805;28;20381;-62
2021/12/07 13:09:36;;;;;;;4.67;2.00;;;;;;;;;;5051167;28;20292;-63
2021/12/07 13:12:03;;;;;;;5.40;1.93;;;;;;;;;;5051140;28;20309;-63
2021/12/07 13:14:38;;;;;;;6.23;2.13;;;;;;;;;;5048038;28;20235;-63
2021/12/07 13:17:16;;;;;;;6.60;2.50;;;;;;;;;;5042519;28;20234;-63
2021/12/07 13:20:01;;;;;;;5.60;2.07;;;;;;;;;;5036945;28;20242;-63
2021/12/07 13:22:34;;;;;;;5.93;2.30;;;;;;;;;;5045332;28;20393;-63
2021/12/07 13:25:03;;;;;;;5.70;1.97;;;;;;;;;;5030582;28;20231;-63
2021/12/07 13:27:29;;;;;;;4.50;1.80;;;;;;;;;;5042771;28;20223;-63
2021/12/07 13:29:55;;;;;;;8.03;2.53;;;;;;;;;;5037120;28;20653;-62
2021/12/07 13:32:21;;;;;;;6.97;2.40;;;;;;;;;;5041928;28;20262;-63
2021/12/07 13:34:49;;;;;;;5.33;2.20;;;;;;;;;;5041385;28;20246;-64
2021/12/07 13:37:15;;;;;;;6.83;2.20;;;;;;;;;;5027769;28;20235;-63
2021/12/07 13:39:45;;;;;;;4.97;2.10;;;;;;;;;;5047176;28;20292;-62
2021/12/07 13:42:13;;;;;;;4.13;2.47;;;;;;;;;;5036050;28;20505;-64
2021/12/07 13:44:41;;;;;;;3.03;2.10;;;;;;;;;;5044776;28;20250;-64
2021/12/07 13:47:17;;;;;;;7.27;2.47;;;;;;;;;;5047204;28;20266;-64
2021/12/07 13:49:44;;;;;;;8.27;2.30;;;;;;;;;;5046689;28;20351;-63
2021/12/07 13:52:11;;;;;;;4.23;1.90;;;;;;;;;;5042193;28;20227;-63
2021/12/07 13:54:46;;;;;;;4.50;2.20;;;;;;;;;;5048745;28;20247;-62
2021/12/07 13:57:12;;;;;;;3.30;1.87;;;;;;;;;;5044886;28;20290;-62
2021/12/07 13:59:38;;;;;;;6.27;1.80;;;;;;;;;;5040309;28;20235;-62
2021/12/07 14:02:04;;;;;;;6.33;2.13;;;;;;;;;;5052084;28;20257;-63
2021/12/07 14:04:30;;;;;;;4.70;1.97;;;;;;;;;;5036298;28;20285;-63
2021/12/07 14:06:57;;;;;;;5.93;2.13;;;;;;;;;;5036388;28;20235;-63
2021/12/07 14:09:23;;;;;;;5.33;1.97;;;;;;;;;;5050144;28;20223;-62
2021/12/07 14:11:56;;;;;;;5.43;2.10;;;;;;;;;;5039056;28;20250;-62
2021/12/07 14:14:22;;;;;;;6.17;2.20;;;;;;;;;;5035365;28;20359;-62
2021/12/07 14:16:48;;;;;;;6.83;2.20;;;;;;;;;;5039683;28;20235;-63
2021/12/07 14:19:14;;;;;;;5.97;2.40;;;;;;;;;;5040394;28;20231;-62
2021/12/07 14:21:40;;;;;;;7.70;2.20;;;;;;;;;;5043675;28;20867;-62
2021/12/07 14:24:15;;;;;;;4.97;2.10;;;;;;;;;;5041861;28;20304;-64
2021/12/07 14:26:41;;;;;;;8.63;2.40;;;;;;;;;;5040558;28;20708;-63
2021/12/07 14:29:11;;;;;;;9.53;2.43;;;;;;;;;;5033504;28;21313;-63
2021/12/07 14:31:38;;;;;;;5.13;1.80;;;;;;;;;;5037897;28;20712;-63
2021/12/07 14:34:05;;;;;;;6.23;2.00;;;;;;;;;;5039489;28;20231;-63
2021/12/07 14:36:51;;;;;;;4.17;2.10;;;;;;;;;;5041833;28;24730;-63
2021/12/07 14:39:22;;;;;;;6.63;2.37;;;;;;;;;;5033602;28;20272;-63
2021/12/07 14:41:49;;;;;;;6.40;2.20;;;;;;;;;;5017051;28;20231;-63
2021/12/07 14:44:16;;;;;;;8.87;2.17;;;;;;;;;;5030094;28;20227;-63
2021/12/07 14:46:43;;;;;;;6.27;2.57;;;;;;;;;;5047442;28;20846;-63
2021/12/07 14:49:09;;;;;;;10.47;2.37;;;;;;;;;;5026129;28;20235;-64
2021/12/07 14:51:35;;;;;;;7.17;2.60;;;;;;;;;;5045794;28;20750;-63
2021/12/07 14:54:01;;;;;;;7.27;2.70;;;;;;;;;;5046290;28;20287;-64
2021/12/07 14:56:28;;;;;;;8.50;2.87;;;;;;;;;;5038194;28;20298;-63
2021/12/07 14:58:55;;;;;;;9.87;2.90;;;;;;;;;;5040663;28;20773;-63
2021/12/07 15:01:22;;;;;;;6.73;2.60;;;;;;;;;;5041799;28;20668;-63
2021/12/07 15:03:49;;;;;;;5.97;2.27;;;;;;;;;;5042165;28;20269;-62
2021/12/07 15:06:15;;;;;;;6.13;2.20;;;;;;;;;;5037975;28;20224;-63
2021/12/07 15:08:42;;;;;;;8.00;2.73;;;;;;;;;;5041255;28;20232;-64
2021/12/07 15:11:08;;;;;;;6.63;2.30;;;;;;;;;;5036898;28;20255;-64
2021/12/07 15:13:35;;;;;;;11.17;3.00;;;;;;;;;;5040356;28;20249;-63
2021/12/07 15:16:01;;;;;;;8.07;3.23;;;;;;;;;;5040213;28;20247;-63
2021/12/07 15:18:32;;;;;;;6.17;2.60;;;;;;;;;;5036494;28;20255;-63
2021/12/07 15:20:58;;;;;;;6.40;2.70;;;;;;;;;;5039935;28;20338;-63
2021/12/07 15:23:24;;;;;;;7.23;2.90;;;;;;;;;;5027637;28;20231;-63
2021/12/07 15:25:51;;;;;;;11.83;3.30;;;;;;;;;;5026037;28;20294;-62
2021/12/07 15:28:18;;;;;;;9.80;4.30;;;;;;;;;;5037173;28;20245;-65
2021/12/07 15:30:44;;;;;;;59.60;19.60;;;;;;;;;;5036287;28;20227;-60
2021/12/07 15:33:10;;;;;;;138.67;45.97;;;;;;;;;;5039081;28;20227;-63
2021/12/07 15:35:36;;;;;;;147.27;45.03;;;;;;;;;;5039765;28;20843;-62
2021/12/07 15:38:02;;;;;;;124.80;41.73;;;;;;;;;;5038305;28;20239;-62
2021/12/07 15:40:28;;;;;;;117.77;45.60;;;;;;;;;;5040698;28;20657;-63
2021/12/07 15:42:54;;;;;;;85.03;30.33;;;;;;;;;;5041313;28;21977;-63
2021/12/07 15:45:20;;;;;;;69.23;24.40;;;;;;;;;;5047074;28;20306;-63
2021/12/07 15:47:46;;;;;;;70.03;23.53;;;;;;;;;;5039151;28;20273;-63
2021/12/07 15:50:12;;;;;;;58.97;21.50;;;;;;;;;;5031438;28;20697;-61
2021/12/07 15:52:41;;;;;;;59.07;21.00;;;;;;;;;;5045463;28;20246;-63
2021/12/07 15:55:11;;;;;;;57.87;22.13;;;;;;;;;;5029398;28;21500;-63
2021/12/07 15:57:56;;;;;;;47.37;17.67;;;;;;;;;;5038954;28;20243;-62
2021/12/07 16:00:23;;;;;;;41.20;17.27;;;;;;;;;;5040466;28;20228;-62
2021/12/07 16:02:56;;;;;;;36.50;14.37;;;;;;;;;;5042599;28;20232;-62
2021/12/07 16:05:22;;;;;;;30.60;12.90;;;;;;;;;;5028986;28;20287;-62
2021/12/07 16:07:49;;;;;;;30.97;12.63;;;;;;;;;;5037579;28;21791;-62
2021/12/07 16:10:16;;;;;;;27.90;10.47;;;;;;;;;;5039453;28;20327;-61
2021/12/07 16:12:42;;;;;;;22.93;9.63;;;;;;;;;;5037109;28;20239;-62
2021/12/07 16:15:15;;;;;;;23.57;8.63;;;;;;;;;;5034546;28;20282;-61
2021/12/07 16:17:41;;;;;;;19.40;7.73;;;;;;;;;;5050308;28;20945;-62
2021/12/07 16:20:08;;;;;;;20.30;7.47;;;;;;;;;;5037296;28;20226;-62